sensor_id;sensor_type;location;lat;lon;timestamp;P1;durP1;ratioP1;P2;durP2;ratioP2
52730;SDS011;38624;53.242;6.974;2022-07-29T00:02:09;2.43;;;1.20;;
52730;SDS011;38624;53.242;6.974;2022-07-29T00:04:35;2.97;;;1.40;;
52730;SDS011;38624;53.242;6.974;2022-07-29T00:07:01;3.10;;;1.30;;
52730;SDS011;38624;53.242;6.974;2022-07-29T00:09:28;3.58;;;1.48;;
52730;SDS011;38624;53.242;6.974;2022-07-29T00:11:54;4.27;;;1.60;;
52730;SDS011;38624;53.242;6.974;2022-07-29T00:14:22;2.63;;;1.50;;
52730;SDS011;38624;53.242;6.974;2022-07-29T00:16:47;2.30;;;1.30;;
52730;SDS011;38624;53.242;6.974;2022-07-29T00:19:13;4.30;;;1.33;;
52730;SDS011;38624;53.242;6.974;2022-07-29T00:21:39;6.20;;;1.37;;
52730;SDS011;38624;53.242;6.974;2022-07-29T00:24:04;3.50;;;1.40;;
52730;SDS011;38624;53.242;6.974;2022-07-29T00:26:30;3.80;;;1.30;;
52730;SDS011;38624;53.242;6.974;2022-07-29T00:31:27;1.98;;;1.10;;
52730;SDS011;38624;53.242;6.974;2022-07-29T00:33:53;4.30;;;1.30;;
52730;SDS011;38624;53.242;6.974;2022-07-29T00:36:19;2.75;;;1.15;;
52730;SDS011;38624;53.242;6.974;2022-07-29T00:38:46;2.92;;;1.13;;
52730;SDS011;38624;53.242;6.974;2022-07-29T00:41:13;3.58;;;1.20;;
52730;SDS011;38624;53.242;6.974;2022-07-29T00:43:38;3.97;;;1.40;;
52730;SDS011;38624;53.242;6.974;2022-07-29T00:46:04;3.70;;;1.70;;
52730;SDS011;38624;53.242;6.974;2022-07-29T00:48:30;4.80;;;1.57;;
52730;SDS011;38624;53.242;6.974;2022-07-29T00:50:57;3.07;;;1.33;;
52730;SDS011;38624;53.242;6.974;2022-07-29T00:53:24;3.35;;;1.48;;
52730;SDS011;38624;53.242;6.974;2022-07-29T00:55:50;2.85;;;1.10;;
52730;SDS011;38624;53.242;6.974;2022-07-29T00:58:16;3.43;;;1.40;;
52730;SDS011;38624;53.242;6.974;2022-07-29T01:00:42;6.77;;;1.57;;
52730;SDS011;38624;53.242;6.974;2022-07-29T01:03:08;2.53;;;1.13;;
52730;SDS011;38624;53.242;6.974;2022-07-29T01:05:34;3.07;;;1.40;;
52730;SDS011;38624;53.242;6.974;2022-07-29T01:08:00;5.05;;;1.38;;
52730;SDS011;38624;53.242;6.974;2022-07-29T01:12:54;3.53;;;1.42;;
52730;SDS011;38624;53.242;6.974;2022-07-29T01:15:23;3.55;;;1.40;;
52730;SDS011;38624;53.242;6.974;2022-07-29T01:26:22;6.20;;;1.67;;
52730;SDS011;38624;53.242;6.974;2022-07-29T01:32:05;3.53;;;1.50;;
52730;SDS011;38624;53.242;6.974;2022-07-29T01:34:40;5.53;;;1.55;;
52730;SDS011;38624;53.242;6.974;2022-07-29T01:37:18;5.65;;;1.42;;
52730;SDS011;38624;53.242;6.974;2022-07-29T01:40:03;3.22;;;1.30;;
52730;SDS011;38624;53.242;6.974;2022-07-29T01:42:42;3.97;;;1.20;;
52730;SDS011;38624;53.242;6.974;2022-07-29T01:48:14;4.63;;;1.50;;
52730;SDS011;38624;53.242;6.974;2022-07-29T01:50:47;4.32;;;1.42;;
52730;SDS011;38624;53.242;6.974;2022-07-29T01:53:21;2.35;;;1.30;;
52730;SDS011;38624;53.242;6.974;2022-07-29T01:55:56;3.10;;;1.35;;
52730;SDS011;38624;53.242;6.974;2022-07-29T01:58:24;3.30;;;1.40;;
52730;SDS011;38624;53.242;6.974;2022-07-29T02:00:51;2.65;;;1.25;;
52730;SDS011;38624;53.242;6.974;2022-07-29T02:03:18;2.97;;;1.30;;
52730;SDS011;38624;53.242;6.974;2022-07-29T02:05:45;2.05;;;1.35;;
52730;SDS011;38624;53.242;6.974;2022-07-29T02:08:13;3.80;;;1.42;;
52730;SDS011;38624;53.242;6.974;2022-07-29T02:10:41;3.00;;;1.15;;
52730;SDS011;38624;53.242;6.974;2022-07-29T02:13:09;6.15;;;1.35;;
52730;SDS011;38624;53.242;6.974;2022-07-29T02:15:36;4.80;;;1.38;;
52730;SDS011;38624;53.242;6.974;2022-07-29T02:18:12;4.00;;;1.60;;
52730;SDS011;38624;53.242;6.974;2022-07-29T02:20:43;4.15;;;1.40;;
52730;SDS011;38624;53.242;6.974;2022-07-29T02:23:11;5.32;;;1.40;;
52730;SDS011;38624;53.242;6.974;2022-07-29T02:25:39;2.92;;;1.40;;
52730;SDS011;38624;53.242;6.974;2022-07-29T02:28:06;5.28;;;1.52;;
52730;SDS011;38624;53.242;6.974;2022-07-29T02:30:33;4.38;;;1.60;;
52730;SDS011;38624;53.242;6.974;2022-07-29T02:33:04;3.92;;;1.40;;
52730;SDS011;38624;53.242;6.974;2022-07-29T02:35:32;4.25;;;1.60;;
52730;SDS011;38624;53.242;6.974;2022-07-29T02:37:58;6.13;;;1.50;;
52730;SDS011;38624;53.242;6.974;2022-07-29T02:40:42;6.63;;;1.55;;
52730;SDS011;38624;53.242;6.974;2022-07-29T02:43:09;4.35;;;1.23;;
52730;SDS011;38624;53.242;6.974;2022-07-29T02:45:35;3.95;;;1.60;;
52730;SDS011;38624;53.242;6.974;2022-07-29T02:48:05;3.57;;;1.10;;
52730;SDS011;38624;53.242;6.974;2022-07-29T02:50:41;5.22;;;1.63;;
52730;SDS011;38624;53.242;6.974;2022-07-29T02:53:17;4.03;;;1.42;;
52730;SDS011;38624;53.242;6.974;2022-07-29T02:55:51;2.85;;;1.40;;
52730;SDS011;38624;53.242;6.974;2022-07-29T02:58:32;3.78;;;1.63;;
52730;SDS011;38624;53.242;6.974;2022-07-29T03:01:16;5.88;;;1.40;;
52730;SDS011;38624;53.242;6.974;2022-07-29T03:03:50;6.00;;;1.73;;
52730;SDS011;38624;53.242;6.974;2022-07-29T03:06:19;4.13;;;1.50;;
52730;SDS011;38624;53.242;6.974;2022-07-29T03:08:47;3.40;;;1.80;;
52730;SDS011;38624;53.242;6.974;2022-07-29T03:11:14;6.15;;;1.42;;
52730;SDS011;38624;53.242;6.974;2022-07-29T03:16:07;2.58;;;1.58;;
52730;SDS011;38624;53.242;6.974;2022-07-29T03:18:35;3.08;;;1.40;;
52730;SDS011;38624;53.242;6.974;2022-07-29T03:21:01;5.60;;;1.48;;
52730;SDS011;38624;53.242;6.974;2022-07-29T03:23:28;3.58;;;1.40;;
52730;SDS011;38624;53.242;6.974;2022-07-29T03:25:54;4.53;;;1.47;;
52730;SDS011;38624;53.242;6.974;2022-07-29T03:28:20;4.80;;;1.52;;
52730;SDS011;38624;53.242;6.974;2022-07-29T03:30:47;6.78;;;1.50;;
52730;SDS011;38624;53.242;6.974;2022-07-29T03:33:12;4.07;;;1.67;;
52730;SDS011;38624;53.242;6.974;2022-07-29T03:35:38;2.47;;;1.37;;
52730;SDS011;38624;53.242;6.974;2022-07-29T03:38:04;3.97;;;1.50;;
52730;SDS011;38624;53.242;6.974;2022-07-29T03:40:31;3.60;;;1.50;;
52730;SDS011;38624;53.242;6.974;2022-07-29T03:43:11;5.88;;;1.77;;
52730;SDS011;38624;53.242;6.974;2022-07-29T03:45:41;4.20;;;1.90;;
52730;SDS011;38624;53.242;6.974;2022-07-29T03:48:10;6.22;;;1.70;;
52730;SDS011;38624;53.242;6.974;2022-07-29T03:50:39;5.20;;;1.42;;
52730;SDS011;38624;53.242;6.974;2022-07-29T03:53:05;4.63;;;1.57;;
52730;SDS011;38624;53.242;6.974;2022-07-29T03:55:32;4.57;;;1.60;;
52730;SDS011;38624;53.242;6.974;2022-07-29T03:58:02;4.70;;;1.67;;
52730;SDS011;38624;53.242;6.974;2022-07-29T04:00:28;4.63;;;1.85;;
52730;SDS011;38624;53.242;6.974;2022-07-29T04:02:55;4.78;;;1.80;;
52730;SDS011;38624;53.242;6.974;2022-07-29T04:05:22;7.03;;;1.90;;
52730;SDS011;38624;53.242;6.974;2022-07-29T04:07:48;3.60;;;1.50;;
52730;SDS011;38624;53.242;6.974;2022-07-29T04:10:14;2.80;;;1.50;;
52730;SDS011;38624;53.242;6.974;2022-07-29T04:12:43;5.68;;;1.63;;
52730;SDS011;38624;53.242;6.974;2022-07-29T04:15:09;6.20;;;1.57;;
52730;SDS011;38624;53.242;6.974;2022-07-29T04:17:35;5.45;;;1.70;;
52730;SDS011;38624;53.242;6.974;2022-07-29T04:20:02;4.73;;;1.80;;
52730;SDS011;38624;53.242;6.974;2022-07-29T04:22:28;3.72;;;1.75;;
52730;SDS011;38624;53.242;6.974;2022-07-29T04:24:54;3.60;;;1.63;;
52730;SDS011;38624;53.242;6.974;2022-07-29T04:27:19;4.20;;;1.40;;
52730;SDS011;38624;53.242;6.974;2022-07-29T04:29:45;5.27;;;1.70;;
52730;SDS011;38624;53.242;6.974;2022-07-29T04:32:11;5.13;;;1.50;;
52730;SDS011;38624;53.242;6.974;2022-07-29T04:34:37;5.80;;;1.80;;
52730;SDS011;38624;53.242;6.974;2022-07-29T04:37:03;3.50;;;1.57;;
52730;SDS011;38624;53.242;6.974;2022-07-29T04:39:28;3.87;;;1.80;;
52730;SDS011;38624;53.242;6.974;2022-07-29T04:41:54;4.47;;;1.80;;
52730;SDS011;38624;53.242;6.974;2022-07-29T04:44:20;2.07;;;1.50;;
52730;SDS011;38624;53.242;6.974;2022-07-29T04:46:46;4.45;;;1.73;;
52730;SDS011;38624;53.242;6.974;2022-07-29T04:49:12;4.70;;;1.67;;
52730;SDS011;38624;53.242;6.974;2022-07-29T04:51:38;4.43;;;1.60;;
52730;SDS011;38624;53.242;6.974;2022-07-29T04:54:04;5.80;;;1.80;;
52730;SDS011;38624;53.242;6.974;2022-07-29T04:56:29;3.20;;;1.30;;
52730;SDS011;38624;53.242;6.974;2022-07-29T04:58:55;5.77;;;1.87;;
52730;SDS011;38624;53.242;6.974;2022-07-29T05:01:21;4.93;;;1.63;;
52730;SDS011;38624;53.242;6.974;2022-07-29T05:03:47;3.47;;;1.70;;
52730;SDS011;38624;53.242;6.974;2022-07-29T05:06:12;3.13;;;1.40;;
52730;SDS011;38624;53.242;6.974;2022-07-29T05:08:38;4.20;;;1.63;;
52730;SDS011;38624;53.242;6.974;2022-07-29T05:11:04;4.63;;;1.80;;
52730;SDS011;38624;53.242;6.974;2022-07-29T05:13:29;5.13;;;1.73;;
52730;SDS011;38624;53.242;6.974;2022-07-29T05:15:55;4.77;;;1.53;;
52730;SDS011;38624;53.242;6.974;2022-07-29T05:18:23;4.60;;;1.80;;
52730;SDS011;38624;53.242;6.974;2022-07-29T05:20:49;5.57;;;1.60;;
52730;SDS011;38624;53.242;6.974;2022-07-29T05:23:15;4.65;;;1.58;;
52730;SDS011;38624;53.242;6.974;2022-07-29T05:25:41;4.17;;;1.70;;
52730;SDS011;38624;53.242;6.974;2022-07-29T05:28:07;5.40;;;1.73;;
52730;SDS011;38624;53.242;6.974;2022-07-29T05:30:33;5.37;;;1.83;;
52730;SDS011;38624;53.242;6.974;2022-07-29T05:32:58;6.93;;;1.83;;
52730;SDS011;38624;53.242;6.974;2022-07-29T05:35:24;4.97;;;1.73;;
52730;SDS011;38624;53.242;6.974;2022-07-29T05:37:50;11.83;;;2.07;;
52730;SDS011;38624;53.242;6.974;2022-07-29T05:40:16;10.07;;;2.10;;
52730;SDS011;38624;53.242;6.974;2022-07-29T05:42:41;5.30;;;1.77;;
52730;SDS011;38624;53.242;6.974;2022-07-29T05:45:07;4.33;;;1.77;;
52730;SDS011;38624;53.242;6.974;2022-07-29T05:47:33;5.32;;;1.80;;
52730;SDS011;38624;53.242;6.974;2022-07-29T05:49:59;4.10;;;1.80;;
52730;SDS011;38624;53.242;6.974;2022-07-29T05:52:25;6.80;;;1.83;;
52730;SDS011;38624;53.242;6.974;2022-07-29T05:54:51;5.10;;;1.93;;
52730;SDS011;38624;53.242;6.974;2022-07-29T05:57:20;6.23;;;1.70;;
52730;SDS011;38624;53.242;6.974;2022-07-29T05:59:48;5.15;;;1.88;;
52730;SDS011;38624;53.242;6.974;2022-07-29T06:02:15;7.55;;;1.75;;
52730;SDS011;38624;53.242;6.974;2022-07-29T06:04:41;5.03;;;1.80;;
52730;SDS011;38624;53.242;6.974;2022-07-29T06:07:07;4.00;;;1.77;;
52730;SDS011;38624;53.242;6.974;2022-07-29T06:09:33;3.57;;;1.60;;
52730;SDS011;38624;53.242;6.974;2022-07-29T06:11:59;7.07;;;1.92;;
52730;SDS011;38624;53.242;6.974;2022-07-29T06:14:25;6.07;;;1.92;;
52730;SDS011;38624;53.242;6.974;2022-07-29T06:16:54;5.47;;;1.90;;
52730;SDS011;38624;53.242;6.974;2022-07-29T06:19:20;5.78;;;1.95;;
52730;SDS011;38624;53.242;6.974;2022-07-29T06:21:46;3.90;;;1.90;;
52730;SDS011;38624;53.242;6.974;2022-07-29T06:24:13;4.20;;;1.83;;
52730;SDS011;38624;53.242;6.974;2022-07-29T06:26:40;6.07;;;2.08;;
52730;SDS011;38624;53.242;6.974;2022-07-29T06:29:06;4.75;;;1.80;;
52730;SDS011;38624;53.242;6.974;2022-07-29T06:31:32;6.38;;;1.58;;
52730;SDS011;38624;53.242;6.974;2022-07-29T06:33:58;9.15;;;1.73;;
52730;SDS011;38624;53.242;6.974;2022-07-29T06:36:24;4.13;;;1.80;;
52730;SDS011;38624;53.242;6.974;2022-07-29T06:38:50;5.97;;;1.90;;
52730;SDS011;38624;53.242;6.974;2022-07-29T06:41:16;6.93;;;1.80;;
52730;SDS011;38624;53.242;6.974;2022-07-29T06:43:42;7.33;;;1.77;;
52730;SDS011;38624;53.242;6.974;2022-07-29T06:46:10;6.65;;;1.70;;
52730;SDS011;38624;53.242;6.974;2022-07-29T06:48:39;5.10;;;2.00;;
52730;SDS011;38624;53.242;6.974;2022-07-29T06:51:07;5.47;;;1.70;;
52730;SDS011;38624;53.242;6.974;2022-07-29T06:53:32;6.33;;;2.30;;
52730;SDS011;38624;53.242;6.974;2022-07-29T06:55:59;4.38;;;1.77;;
52730;SDS011;38624;53.242;6.974;2022-07-29T06:58:26;5.55;;;2.10;;
52730;SDS011;38624;53.242;6.974;2022-07-29T07:00:53;4.25;;;2.00;;
52730;SDS011;38624;53.242;6.974;2022-07-29T07:03:18;6.60;;;2.00;;
52730;SDS011;38624;53.242;6.974;2022-07-29T07:05:45;5.37;;;2.20;;
52730;SDS011;38624;53.242;6.974;2022-07-29T07:08:12;3.28;;;1.80;;
52730;SDS011;38624;53.242;6.974;2022-07-29T07:10:38;5.95;;;1.77;;
52730;SDS011;38624;53.242;6.974;2022-07-29T07:13:05;5.88;;;2.03;;
52730;SDS011;38624;53.242;6.974;2022-07-29T07:15:31;6.25;;;2.08;;
52730;SDS011;38624;53.242;6.974;2022-07-29T07:17:57;5.20;;;1.90;;
52730;SDS011;38624;53.242;6.974;2022-07-29T07:20:23;6.67;;;2.03;;
52730;SDS011;38624;53.242;6.974;2022-07-29T07:22:49;10.18;;;2.00;;
52730;SDS011;38624;53.242;6.974;2022-07-29T07:25:15;7.30;;;2.30;;
52730;SDS011;38624;53.242;6.974;2022-07-29T07:27:42;7.25;;;2.13;;
52730;SDS011;38624;53.242;6.974;2022-07-29T07:30:09;6.35;;;2.20;;
52730;SDS011;38624;53.242;6.974;2022-07-29T07:32:35;3.10;;;2.00;;
52730;SDS011;38624;53.242;6.974;2022-07-29T07:35:02;4.65;;;2.28;;
52730;SDS011;38624;53.242;6.974;2022-07-29T07:37:29;5.75;;;2.00;;
52730;SDS011;38624;53.242;6.974;2022-07-29T07:39:55;4.75;;;2.25;;
52730;SDS011;38624;53.242;6.974;2022-07-29T07:42:21;6.97;;;2.30;;
52730;SDS011;38624;53.242;6.974;2022-07-29T07:44:47;4.83;;;2.20;;
52730;SDS011;38624;53.242;6.974;2022-07-29T07:47:13;5.72;;;2.00;;
52730;SDS011;38624;53.242;6.974;2022-07-29T07:49:48;4.25;;;1.80;;
52730;SDS011;38624;53.242;6.974;2022-07-29T07:52:18;6.20;;;2.47;;
52730;SDS011;38624;53.242;6.974;2022-07-29T07:54:45;4.05;;;1.90;;
52730;SDS011;38624;53.242;6.974;2022-07-29T07:57:11;8.07;;;2.13;;
52730;SDS011;38624;53.242;6.974;2022-07-29T07:59:37;5.30;;;2.00;;
52730;SDS011;38624;53.242;6.974;2022-07-29T08:02:04;5.78;;;2.13;;
52730;SDS011;38624;53.242;6.974;2022-07-29T08:04:30;4.53;;;2.13;;
52730;SDS011;38624;53.242;6.974;2022-07-29T08:06:56;5.60;;;1.90;;
52730;SDS011;38624;53.242;6.974;2022-07-29T08:09:22;5.93;;;2.45;;
52730;SDS011;38624;53.242;6.974;2022-07-29T08:11:49;4.95;;;2.17;;
52730;SDS011;38624;53.242;6.974;2022-07-29T08:14:15;5.70;;;2.63;;
52730;SDS011;38624;53.242;6.974;2022-07-29T08:16:41;8.07;;;2.17;;
52730;SDS011;38624;53.242;6.974;2022-07-29T08:19:08;5.18;;;2.05;;
52730;SDS011;38624;53.242;6.974;2022-07-29T08:21:34;6.90;;;2.42;;
52730;SDS011;38624;53.242;6.974;2022-07-29T08:24:00;4.37;;;1.97;;
52730;SDS011;38624;53.242;6.974;2022-07-29T08:26:44;4.35;;;2.08;;
52730;SDS011;38624;53.242;6.974;2022-07-29T08:29:10;4.57;;;2.10;;
52730;SDS011;38624;53.242;6.974;2022-07-29T08:31:37;4.00;;;1.88;;
52730;SDS011;38624;53.242;6.974;2022-07-29T08:34:03;5.57;;;2.15;;
52730;SDS011;38624;53.242;6.974;2022-07-29T08:36:30;5.80;;;2.42;;
52730;SDS011;38624;53.242;6.974;2022-07-29T08:38:57;5.65;;;2.40;;
52730;SDS011;38624;53.242;6.974;2022-07-29T08:41:23;4.78;;;1.90;;
52730;SDS011;38624;53.242;6.974;2022-07-29T08:43:49;4.43;;;1.93;;
52730;SDS011;38624;53.242;6.974;2022-07-29T08:46:16;8.05;;;2.50;;
52730;SDS011;38624;53.242;6.974;2022-07-29T08:48:43;7.65;;;2.47;;
52730;SDS011;38624;53.242;6.974;2022-07-29T08:51:08;5.97;;;2.20;;
52730;SDS011;38624;53.242;6.974;2022-07-29T08:53:39;6.35;;;1.83;;
52730;SDS011;38624;53.242;6.974;2022-07-29T08:56:07;6.13;;;2.00;;
52730;SDS011;38624;53.242;6.974;2022-07-29T08:58:36;4.35;;;2.30;;
52730;SDS011;38624;53.242;6.974;2022-07-29T09:01:02;3.70;;;2.10;;
52730;SDS011;38624;53.242;6.974;2022-07-29T09:03:31;5.50;;;2.20;;
52730;SDS011;38624;53.242;6.974;2022-07-29T09:06:00;5.35;;;2.42;;
52730;SDS011;38624;53.242;6.974;2022-07-29T09:08:26;5.20;;;2.40;;
52730;SDS011;38624;53.242;6.974;2022-07-29T09:10:53;5.57;;;2.38;;
52730;SDS011;38624;53.242;6.974;2022-07-29T09:13:21;4.57;;;1.95;;
52730;SDS011;38624;53.242;6.974;2022-07-29T09:15:47;3.55;;;2.15;;
52730;SDS011;38624;53.242;6.974;2022-07-29T09:21:03;5.85;;;2.10;;
52730;SDS011;38624;53.242;6.974;2022-07-29T09:26:35;5.20;;;2.05;;
52730;SDS011;38624;53.242;6.974;2022-07-29T09:29:09;7.47;;;2.20;;
52730;SDS011;38624;53.242;6.974;2022-07-29T09:31:40;4.68;;;1.98;;
52730;SDS011;38624;53.242;6.974;2022-07-29T09:34:08;6.80;;;2.20;;
52730;SDS011;38624;53.242;6.974;2022-07-29T09:36:42;6.20;;;2.20;;
52730;SDS011;38624;53.242;6.974;2022-07-29T09:39:09;4.97;;;2.30;;
52730;SDS011;38624;53.242;6.974;2022-07-29T09:41:49;4.22;;;2.03;;
52730;SDS011;38624;53.242;6.974;2022-07-29T09:44:18;4.78;;;1.83;;
52730;SDS011;38624;53.242;6.974;2022-07-29T09:49:30;7.68;;;2.15;;
52730;SDS011;38624;53.242;6.974;2022-07-29T09:52:08;4.60;;;2.08;;
52730;SDS011;38624;53.242;6.974;2022-07-29T09:54:36;4.07;;;2.30;;
52730;SDS011;38624;53.242;6.974;2022-07-29T09:57:06;5.22;;;2.30;;
52730;SDS011;38624;53.242;6.974;2022-07-29T09:59:37;2.80;;;2.00;;
52730;SDS011;38624;53.242;6.974;2022-07-29T10:02:13;5.28;;;2.00;;
52730;SDS011;38624;53.242;6.974;2022-07-29T10:04:40;5.00;;;2.38;;
52730;SDS011;38624;53.242;6.974;2022-07-29T10:07:06;10.32;;;2.55;;
52730;SDS011;38624;53.242;6.974;2022-07-29T10:09:33;7.85;;;2.33;;
52730;SDS011;38624;53.242;6.974;2022-07-29T10:12:10;4.38;;;2.38;;
52730;SDS011;38624;53.242;6.974;2022-07-29T10:14:39;6.50;;;2.42;;
52730;SDS011;38624;53.242;6.974;2022-07-29T10:17:06;4.18;;;2.20;;
52730;SDS011;38624;53.242;6.974;2022-07-29T10:19:34;5.72;;;2.10;;
52730;SDS011;38624;53.242;6.974;2022-07-29T10:22:01;6.88;;;2.20;;
52730;SDS011;38624;53.242;6.974;2022-07-29T10:24:30;6.15;;;2.10;;
52730;SDS011;38624;53.242;6.974;2022-07-29T10:26:57;5.55;;;2.17;;
52730;SDS011;38624;53.242;6.974;2022-07-29T10:29:24;6.05;;;2.22;;
52730;SDS011;38624;53.242;6.974;2022-07-29T10:34:57;8.00;;;2.28;;
52730;SDS011;38624;53.242;6.974;2022-07-29T10:37:59;6.22;;;2.13;;
52730;SDS011;38624;53.242;6.974;2022-07-29T10:40:32;8.35;;;2.28;;
52730;SDS011;38624;53.242;6.974;2022-07-29T10:43:31;6.30;;;2.40;;
52730;SDS011;38624;53.242;6.974;2022-07-29T10:46:01;4.15;;;2.05;;
52730;SDS011;38624;53.242;6.974;2022-07-29T10:48:28;4.80;;;2.10;;
52730;SDS011;38624;53.242;6.974;2022-07-29T10:51:01;5.43;;;2.08;;
52730;SDS011;38624;53.242;6.974;2022-07-29T10:53:48;9.13;;;2.20;;
52730;SDS011;38624;53.242;6.974;2022-07-29T10:56:33;5.35;;;2.20;;
52730;SDS011;38624;53.242;6.974;2022-07-29T11:01:47;4.60;;;2.10;;
52730;SDS011;38624;53.242;6.974;2022-07-29T11:09:23;7.63;;;2.08;;
52730;SDS011;38624;53.242;6.974;2022-07-29T11:11:50;6.35;;;1.90;;
52730;SDS011;38624;53.242;6.974;2022-07-29T11:14:16;8.97;;;2.10;;
52730;SDS011;38624;53.242;6.974;2022-07-29T11:16:58;6.68;;;2.28;;
52730;SDS011;38624;53.242;6.974;2022-07-29T11:19:29;6.40;;;2.25;;
52730;SDS011;38624;53.242;6.974;2022-07-29T11:21:55;5.95;;;2.40;;
52730;SDS011;38624;53.242;6.974;2022-07-29T11:24:23;8.30;;;2.60;;
52730;SDS011;38624;53.242;6.974;2022-07-29T11:29:49;5.88;;;1.90;;
52730;SDS011;38624;53.242;6.974;2022-07-29T11:32:17;10.57;;;2.53;;
52730;SDS011;38624;53.242;6.974;2022-07-29T11:34:45;4.57;;;2.10;;
52730;SDS011;38624;53.242;6.974;2022-07-29T11:39:38;6.67;;;2.30;;
52730;SDS011;38624;53.242;6.974;2022-07-29T11:47:22;4.85;;;2.00;;
52730;SDS011;38624;53.242;6.974;2022-07-29T11:52:18;6.65;;;2.00;;
52730;SDS011;38624;53.242;6.974;2022-07-29T11:54:44;7.57;;;2.20;;
52730;SDS011;38624;53.242;6.974;2022-07-29T11:57:13;6.88;;;2.05;;
52730;SDS011;38624;53.242;6.974;2022-07-29T11:59:42;5.55;;;2.00;;
52730;SDS011;38624;53.242;6.974;2022-07-29T12:02:09;5.82;;;1.90;;
52730;SDS011;38624;53.242;6.974;2022-07-29T12:07:17;6.60;;;2.25;;
52730;SDS011;38624;53.242;6.974;2022-07-29T12:09:50;4.78;;;1.90;;
52730;SDS011;38624;53.242;6.974;2022-07-29T12:12:17;3.05;;;1.92;;
52730;SDS011;38624;53.242;6.974;2022-07-29T12:14:43;7.55;;;2.03;;
52730;SDS011;38624;53.242;6.974;2022-07-29T12:17:25;10.77;;;2.50;;
52730;SDS011;38624;53.242;6.974;2022-07-29T12:19:55;4.95;;;2.10;;
52730;SDS011;38624;53.242;6.974;2022-07-29T12:22:33;6.75;;;2.30;;
52730;SDS011;38624;53.242;6.974;2022-07-29T12:25:09;6.05;;;2.25;;
52730;SDS011;38624;53.242;6.974;2022-07-29T12:27:36;7.35;;;2.25;;
52730;SDS011;38624;53.242;6.974;2022-07-29T12:30:10;7.50;;;2.17;;
52730;SDS011;38624;53.242;6.974;2022-07-29T12:32:42;7.85;;;1.95;;
52730;SDS011;38624;53.242;6.974;2022-07-29T12:35:15;5.63;;;2.20;;
52730;SDS011;38624;53.242;6.974;2022-07-29T12:37:44;7.82;;;2.22;;
52730;SDS011;38624;53.242;6.974;2022-07-29T12:40:14;6.65;;;2.17;;
52730;SDS011;38624;53.242;6.974;2022-07-29T12:42:46;5.50;;;2.20;;
52730;SDS011;38624;53.242;6.974;2022-07-29T12:45:41;8.23;;;2.50;;
52730;SDS011;38624;53.242;6.974;2022-07-29T12:48:09;5.88;;;2.15;;
52730;SDS011;38624;53.242;6.974;2022-07-29T12:50:36;6.15;;;2.00;;
52730;SDS011;38624;53.242;6.974;2022-07-29T12:53:16;5.22;;;2.22;;
52730;SDS011;38624;53.242;6.974;2022-07-29T12:55:46;7.90;;;2.08;;
52730;SDS011;38624;53.242;6.974;2022-07-29T12:58:29;5.82;;;2.35;;
52730;SDS011;38624;53.242;6.974;2022-07-29T13:06:30;5.25;;;2.10;;
52730;SDS011;38624;53.242;6.974;2022-07-29T13:09:16;9.60;;;2.42;;
52730;SDS011;38624;53.242;6.974;2022-07-29T13:11:45;5.15;;;2.10;;
52730;SDS011;38624;53.242;6.974;2022-07-29T13:17:00;4.57;;;1.98;;
52730;SDS011;38624;53.242;6.974;2022-07-29T13:19:47;6.95;;;2.20;;
52730;SDS011;38624;53.242;6.974;2022-07-29T13:22:21;8.55;;;2.40;;
52730;SDS011;38624;53.242;6.974;2022-07-29T13:24:52;5.38;;;2.17;;
52730;SDS011;38624;53.242;6.974;2022-07-29T13:27:30;4.18;;;2.08;;
52730;SDS011;38624;53.242;6.974;2022-07-29T13:29:58;7.55;;;2.15;;
52730;SDS011;38624;53.242;6.974;2022-07-29T13:32:28;5.95;;;2.10;;
52730;SDS011;38624;53.242;6.974;2022-07-29T13:34:59;6.63;;;2.17;;
52730;SDS011;38624;53.242;6.974;2022-07-29T13:37:27;5.28;;;2.20;;
52730;SDS011;38624;53.242;6.974;2022-07-29T13:39:54;5.82;;;2.22;;
52730;SDS011;38624;53.242;6.974;2022-07-29T13:42:21;7.72;;;2.00;;
52730;SDS011;38624;53.242;6.974;2022-07-29T13:47:20;6.15;;;2.13;;
52730;SDS011;38624;53.242;6.974;2022-07-29T13:49:46;5.78;;;2.20;;
52730;SDS011;38624;53.242;6.974;2022-07-29T13:52:12;4.32;;;1.80;;
52730;SDS011;38624;53.242;6.974;2022-07-29T13:54:39;4.13;;;1.90;;
52730;SDS011;38624;53.242;6.974;2022-07-29T13:57:04;5.00;;;2.07;;
52730;SDS011;38624;53.242;6.974;2022-07-29T13:59:30;5.83;;;2.10;;
52730;SDS011;38624;53.242;6.974;2022-07-29T14:01:56;8.32;;;2.63;;
52730;SDS011;38624;53.242;6.974;2022-07-29T14:04:22;9.90;;;2.00;;
52730;SDS011;38624;53.242;6.974;2022-07-29T14:06:51;7.45;;;2.03;;
52730;SDS011;38624;53.242;6.974;2022-07-29T14:09:17;4.57;;;1.90;;
52730;SDS011;38624;53.242;6.974;2022-07-29T14:11:43;5.68;;;1.80;;
52730;SDS011;38624;53.242;6.974;2022-07-29T14:14:08;5.70;;;1.92;;
52730;SDS011;38624;53.242;6.974;2022-07-29T14:16:35;7.20;;;2.20;;
52730;SDS011;38624;53.242;6.974;2022-07-29T14:19:01;8.15;;;1.88;;
52730;SDS011;38624;53.242;6.974;2022-07-29T14:21:27;8.20;;;1.90;;
52730;SDS011;38624;53.242;6.974;2022-07-29T14:23:52;6.67;;;2.10;;
52730;SDS011;38624;53.242;6.974;2022-07-29T14:28:45;5.05;;;1.80;;
52730;SDS011;38624;53.242;6.974;2022-07-29T14:31:11;6.27;;;1.67;;
52730;SDS011;38624;53.242;6.974;2022-07-29T14:33:37;8.43;;;2.13;;
52730;SDS011;38624;53.242;6.974;2022-07-29T14:36:02;6.63;;;1.87;;
52730;SDS011;38624;53.242;6.974;2022-07-29T14:38:28;8.98;;;1.88;;
52730;SDS011;38624;53.242;6.974;2022-07-29T14:40:54;4.63;;;2.33;;
52730;SDS011;38624;53.242;6.974;2022-07-29T14:43:20;7.50;;;2.00;;
52730;SDS011;38624;53.242;6.974;2022-07-29T14:45:45;7.30;;;1.80;;
52730;SDS011;38624;53.242;6.974;2022-07-29T14:48:11;4.70;;;1.97;;
52730;SDS011;38624;53.242;6.974;2022-07-29T14:50:37;9.63;;;2.23;;
52730;SDS011;38624;53.242;6.974;2022-07-29T14:53:03;6.75;;;2.15;;
52730;SDS011;38624;53.242;6.974;2022-07-29T14:55:29;10.23;;;2.60;;
52730;SDS011;38624;53.242;6.974;2022-07-29T14:57:54;7.80;;;2.58;;
52730;SDS011;38624;53.242;6.974;2022-07-29T15:00:21;9.27;;;2.17;;
52730;SDS011;38624;53.242;6.974;2022-07-29T15:05:13;7.38;;;3.00;;
52730;SDS011;38624;53.242;6.974;2022-07-29T15:07:39;6.85;;;2.42;;
52730;SDS011;38624;53.242;6.974;2022-07-29T15:10:05;8.30;;;2.70;;
52730;SDS011;38624;53.242;6.974;2022-07-29T15:12:31;6.10;;;2.58;;
52730;SDS011;38624;53.242;6.974;2022-07-29T15:14:57;11.52;;;3.15;;
52730;SDS011;38624;53.242;6.974;2022-07-29T15:17:23;11.55;;;2.58;;
52730;SDS011;38624;53.242;6.974;2022-07-29T15:19:49;7.60;;;2.53;;
52730;SDS011;38624;53.242;6.974;2022-07-29T15:22:14;6.33;;;2.40;;
52730;SDS011;38624;53.242;6.974;2022-07-29T15:24:40;7.17;;;2.40;;
52730;SDS011;38624;53.242;6.974;2022-07-29T15:27:06;4.53;;;2.37;;
52730;SDS011;38624;53.242;6.974;2022-07-29T15:29:31;8.63;;;2.93;;
52730;SDS011;38624;53.242;6.974;2022-07-29T15:31:58;10.15;;;2.72;;
52730;SDS011;38624;53.242;6.974;2022-07-29T15:34:23;8.55;;;2.72;;
52730;SDS011;38624;53.242;6.974;2022-07-29T15:36:52;8.02;;;2.70;;
52730;SDS011;38624;53.242;6.974;2022-07-29T15:39:18;11.68;;;3.28;;
52730;SDS011;38624;53.242;6.974;2022-07-29T15:41:45;5.40;;;2.53;;
52730;SDS011;38624;53.242;6.974;2022-07-29T15:44:11;8.43;;;2.75;;
52730;SDS011;38624;53.242;6.974;2022-07-29T15:46:37;5.53;;;2.67;;
52730;SDS011;38624;53.242;6.974;2022-07-29T15:49:21;8.57;;;2.78;;
52730;SDS011;38624;53.242;6.974;2022-07-29T15:51:46;7.07;;;2.40;;
52730;SDS011;38624;53.242;6.974;2022-07-29T15:54:12;8.63;;;2.70;;
52730;SDS011;38624;53.242;6.974;2022-07-29T15:56:38;9.57;;;2.77;;
52730;SDS011;38624;53.242;6.974;2022-07-29T15:59:03;5.25;;;2.40;;
52730;SDS011;38624;53.242;6.974;2022-07-29T16:01:29;7.67;;;2.23;;
52730;SDS011;38624;53.242;6.974;2022-07-29T16:03:55;5.43;;;2.27;;
52730;SDS011;38624;53.242;6.974;2022-07-29T16:06:22;12.02;;;3.05;;
52730;SDS011;38624;53.242;6.974;2022-07-29T16:08:47;7.22;;;2.45;;